sensor_id;sensor_type;location;lat;lon;timestamp;temperature;humidity
3406;DHT22;10008;48.682;9.016;2023-05-19T00:01:31;12.40;95.70
3406;DHT22;10008;48.682;9.016;2023-05-19T00:03:58;12.40;95.70
3406;DHT22;10008;48.682;9.016;2023-05-19T00:06:29;12.40;95.80
3406;DHT22;10008;48.682;9.016;2023-05-19T00:09:02;12.40;95.70
3406;DHT22;10008;48.682;9.016;2023-05-19T00:11:28;12.40;95.80
3406;DHT22;10008;48.682;9.016;2023-05-19T00:13:57;12.20;95.50
3406;DHT22;10008;48.682;9.016;2023-05-19T00:16:24;12.10;95.70
3406;DHT22;10008;48.682;9.016;2023-05-19T00:18:50;12.10;96.00
3406;DHT22;10008;48.682;9.016;2023-05-19T00:21:16;12.00;95.90
3406;DHT22;10008;48.682;9.016;2023-05-19T00:23:42;12.00;96.00
3406;DHT22;10008;48.682;9.016;2023-05-19T00:26:08;12.00;96.20
3406;DHT22;10008;48.682;9.016;2023-05-19T00:28:34;11.90;96.60
3406;DHT22;10008;48.682;9.016;2023-05-19T00:30:59;11.90;96.70
3406;DHT22;10008;48.682;9.016;2023-05-19T00:33:26;11.90;97.00
3406;DHT22;10008;48.682;9.016;2023-05-19T00:35:52;11.70;96.70
3406;DHT22;10008;48.682;9.016;2023-05-19T00:38:18;11.60;97.10
3406;DHT22;10008;48.682;9.016;2023-05-19T00:40:44;11.60;97.10
3406;DHT22;10008;48.682;9.016;2023-05-19T00:43:11;11.60;97.30
3406;DHT22;10008;48.682;9.016;2023-05-19T00:45:36;11.50;97.40
3406;DHT22;10008;48.682;9.016;2023-05-19T00:48:03;11.50;97.50
3406;DHT22;10008;48.682;9.016;2023-05-19T00:50:29;11.40;97.40
3406;DHT22;10008;48.682;9.016;2023-05-19T00:52:56;11.40;97.60
3406;DHT22;10008;48.682;9.016;2023-05-19T00:55:25;11.30;98.20
3406;DHT22;10008;48.682;9.016;2023-05-19T00:57:52;11.30;97.70
3406;DHT22;10008;48.682;9.016;2023-05-19T01:00:18;11.30;98.10
3406;DHT22;10008;48.682;9.016;2023-05-19T01:02:45;11.20;98.30
3406;DHT22;10008;48.682;9.016;2023-05-19T01:05:12;11.30;99.00
3406;DHT22;10008;48.682;9.016;2023-05-19T01:07:39;11.20;98.30
3406;DHT22;10008;48.682;9.016;2023-05-19T01:10:06;11.20;98.30
3406;DHT22;10008;48.682;9.016;2023-05-19T01:12:33;11.20;98.80
3406;DHT22;10008;48.682;9.016;2023-05-19T01:15:02;11.20;98.90
3406;DHT22;10008;48.682;9.016;2023-05-19T01:26:15;11.10;99.30
3406;DHT22;10008;48.682;9.016;2023-05-19T01:29:13;11.10;99.50
3406;DHT22;10008;48.682;9.016;2023-05-19T01:31:41;11.10;99.60
3406;DHT22;10008;48.682;9.016;2023-05-19T01:34:11;11.10;99.10
3406;DHT22;10008;48.682;9.016;2023-05-19T01:36:40;11.20;99.50
3406;DHT22;10008;48.682;9.016;2023-05-19T01:39:09;11.20;98.80
3406;DHT22;10008;48.682;9.016;2023-05-19T01:41:37;11.10;98.70
3406;DHT22;10008;48.682;9.016;2023-05-19T01:44:07;11.20;98.90
3406;DHT22;10008;48.682;9.016;2023-05-19T01:46:35;11.10;99.20
3406;DHT22;10008;48.682;9.016;2023-05-19T01:49:02;11.00;99.10
3406;DHT22;10008;48.682;9.016;2023-05-19T01:51:28;11.10;99.50
3406;DHT22;10008;48.682;9.016;2023-05-19T01:53:54;11.00;99.70
3406;DHT22;10008;48.682;9.016;2023-05-19T01:59:12;11.00;99.80
3406;DHT22;10008;48.682;9.016;2023-05-19T02:01:51;11.00;99.70
3406;DHT22;10008;48.682;9.016;2023-05-19T02:04:40;11.00;99.90
3406;DHT22;10008;48.682;9.016;2023-05-19T02:07:12;11.00;99.80
3406;DHT22;10008;48.682;9.016;2023-05-19T02:09:49;11.00;99.90
3406;DHT22;10008;48.682;9.016;2023-05-19T02:12:22;11.10;99.90
3406;DHT22;10008;48.682;9.016;2023-05-19T02:15:14;11.00;99.90
3406;DHT22;10008;48.682;9.016;2023-05-19T02:17:43;11.00;99.90
3406;DHT22;10008;48.682;9.016;2023-05-19T02:20:14;11.00;99.90
3406;DHT22;10008;48.682;9.016;2023-05-19T02:22:40;11.00;99.90
3406;DHT22;10008;48.682;9.016;2023-05-19T02:25:07;11.10;99.90
3406;DHT22;10008;48.682;9.016;2023-05-19T02:27:33;11.10;99.90
3406;DHT22;10008;48.682;9.016;2023-05-19T02:30:02;11.10;99.90
3406;DHT22;10008;48.682;9.016;2023-05-19T02:32:31;11.20;99.90
3406;DHT22;10008;48.682;9.016;2023-05-19T02:34:57;11.10;99.90
3406;DHT22;10008;48.682;9.016;2023-05-19T02:37:23;11.20;99.90
3406;DHT22;10008;48.682;9.016;2023-05-19T02:39:50;11.10;99.90
3406;DHT22;10008;48.682;9.016;2023-05-19T02:42:16;11.10;99.90
3406;DHT22;10008;48.682;9.016;2023-05-19T02:44:43;11.10;99.90
3406;DHT22;10008;48.682;9.016;2023-05-19T02:47:08;11.20;99.90
3406;DHT22;10008;48.682;9.016;2023-05-19T02:49:35;11.10;99.90
3406;DHT22;10008;48.682;9.016;2023-05-19T02:52:04;11.10;99.90
3406;DHT22;10008;48.682;9.016;2023-05-19T02:54:30;11.10;99.90
3406;DHT22;10008;48.682;9.016;2023-05-19T02:56:56;11.10;99.90
3406;DHT22;10008;48.682;9.016;2023-05-19T02:59:22;11.10;99.90
3406;DHT22;10008;48.682;9.016;2023-05-19T03:01:49;11.10;99.90
3406;DHT22;10008;48.682;9.016;2023-05-19T03:04:15;11.10;99.90
3406;DHT22;10008;48.682;9.016;2023-05-19T03:06:45;11.10;99.90
3406;DHT22;10008;48.682;9.016;2023-05-19T03:09:12;11.00;99.90
3406;DHT22;10008;48.682;9.016;2023-05-19T03:11:40;11.00;99.90
3406;DHT22;10008;48.682;9.016;2023-05-19T03:14:06;11.00;99.90
3406;DHT22;10008;48.682;9.016;2023-05-19T03:16:34;11.00;99.90
3406;DHT22;10008;48.682;9.016;2023-05-19T03:19:00;11.00;99.90
3406;DHT22;10008;48.682;9.016;2023-05-19T03:21:26;11.00;99.90
3406;DHT22;10008;48.682;9.016;2023-05-19T03:23:52;11.00;99.90
3406;DHT22;10008;48.682;9.016;2023-05-19T03:26:19;11.00;99.90
3406;DHT22;10008;48.682;9.016;2023-05-19T03:28:45;11.00;99.90
3406;DHT22;10008;48.682;9.016;2023-05-19T03:31:11;11.00;99.90
3406;DHT22;10008;48.682;9.016;2023-05-19T03:33:37;11.00;99.90
3406;DHT22;10008;48.682;9.016;2023-05-19T03:36:04;11.00;99.90
3406;DHT22;10008;48.682;9.016;2023-05-19T03:38:34;11.00;99.90
3406;DHT22;10008;48.682;9.016;2023-05-19T03:41:00;11.00;99.90
3406;DHT22;10008;48.682;9.016;2023-05-19T03:43:25;11.00;99.90
3406;DHT22;10008;48.682;9.016;2023-05-19T03:45:56;11.00;99.90
3406;DHT22;10008;48.682;9.016;2023-05-19T03:48:57;10.90;99.90
3406;DHT22;10008;48.682;9.016;2023-05-19T03:51:55;11.00;99.90
3406;DHT22;10008;48.682;9.016;2023-05-19T03:54:35;11.00;99.90
3406;DHT22;10008;48.682;9.016;2023-05-19T03:57:04;11.00;99.90
3406;DHT22;10008;48.682;9.016;2023-05-19T03:59:30;10.90;99.90
3406;DHT22;10008;48.682;9.016;2023-05-19T04:01:56;11.00;99.90
3406;DHT22;10008;48.682;9.016;2023-05-19T04:04:25;10.90;99.90
3406;DHT22;10008;48.682;9.016;2023-05-19T04:06:50;10.90;99.90
3406;DHT22;10008;48.682;9.016;2023-05-19T04:09:16;10.90;99.90
3406;DHT22;10008;48.682;9.016;2023-05-19T04:11:43;11.00;99.90
3406;DHT22;10008;48.682;9.016;2023-05-19T04:14:10;10.90;99.90
3406;DHT22;10008;48.682;9.016;2023-05-19T04:16:36;10.80;99.90
3406;DHT22;10008;48.682;9.016;2023-05-19T04:19:02;10.80;99.90
3406;DHT22;10008;48.682;9.016;2023-05-19T04:21:27;10.80;99.90
3406;DHT22;10008;48.682;9.016;2023-05-19T04:23:53;10.70;99.90
3406;DHT22;10008;48.682;9.016;2023-05-19T04:26:20;10.80;99.90
3406;DHT22;10008;48.682;9.016;2023-05-19T04:28:47;10.80;99.90
3406;DHT22;10008;48.682;9.016;2023-05-19T04:31:13;10.80;99.90
3406;DHT22;10008;48.682;9.016;2023-05-19T04:33:41;10.80;99.90
3406;DHT22;10008;48.682;9.016;2023-05-19T04:36:07;10.90;99.90
3406;DHT22;10008;48.682;9.016;2023-05-19T04:38:36;10.90;99.90
3406;DHT22;10008;48.682;9.016;2023-05-19T04:41:05;10.90;99.90
3406;DHT22;10008;48.682;9.016;2023-05-19T04:43:35;10.90;99.90
3406;DHT22;10008;48.682;9.016;2023-05-19T04:46:07;11.00;99.90
3406;DHT22;10008;48.682;9.016;2023-05-19T04:48:34;11.00;99.90
3406;DHT22;10008;48.682;9.016;2023-05-19T04:51:00;11.10;99.90
3406;DHT22;10008;48.682;9.016;2023-05-19T04:53:29;11.00;99.90
3406;DHT22;10008;48.682;9.016;2023-05-19T04:55:56;11.10;99.90
3406;DHT22;10008;48.682;9.016;2023-05-19T04:58:22;11.10;99.90
3406;DHT22;10008;48.682;9.016;2023-05-19T05:00:51;11.20;99.90
3406;DHT22;10008;48.682;9.016;2023-05-19T05:03:17;11.20;99.90
3406;DHT22;10008;48.682;9.016;2023-05-19T05:05:44;11.20;99.90
3406;DHT22;10008;48.682;9.016;2023-05-19T05:08:10;11.20;99.90
3406;DHT22;10008;48.682;9.016;2023-05-19T05:10:39;11.20;99.90
3406;DHT22;10008;48.682;9.016;2023-05-19T05:13:05;11.20;99.90
3406;DHT22;10008;48.682;9.016;2023-05-19T05:15:31;11.10;99.90
3406;DHT22;10008;48.682;9.016;2023-05-19T05:18:00;11.20;99.90
3406;DHT22;10008;48.682;9.016;2023-05-19T05:20:26;11.20;99.90
3406;DHT22;10008;48.682;9.016;2023-05-19T05:22:52;11.20;99.90
3406;DHT22;10008;48.682;9.016;2023-05-19T05:25:19;11.20;99.90
3406;DHT22;10008;48.682;9.016;2023-05-19T05:27:45;11.30;99.90
3406;DHT22;10008;48.682;9.016;2023-05-19T05:30:12;11.40;99.90
3406;DHT22;10008;48.682;9.016;2023-05-19T05:32:38;11.40;99.90
3406;DHT22;10008;48.682;9.016;2023-05-19T05:35:10;11.50;99.90
3406;DHT22;10008;48.682;9.016;2023-05-19T05:37:37;11.60;99.90
3406;DHT22;10008;48.682;9.016;2023-05-19T05:40:03;11.60;99.90
3406;DHT22;10008;48.682;9.016;2023-05-19T05:42:31;11.50;99.90
3406;DHT22;10008;48.682;9.016;2023-05-19T05:44:57;11.70;99.90
3406;DHT22;10008;48.682;9.016;2023-05-19T05:47:23;11.70;99.90
3406;DHT22;10008;48.682;9.016;2023-05-19T05:49:49;11.90;99.90
3406;DHT22;10008;48.682;9.016;2023-05-19T05:52:17;12.20;99.90
3406;DHT22;10008;48.682;9.016;2023-05-19T05:54:46;12.50;99.90
3406;DHT22;10008;48.682;9.016;2023-05-19T05:57:15;12.90;99.90
3406;DHT22;10008;48.682;9.016;2023-05-19T05:59:41;13.70;99.90
3406;DHT22;10008;48.682;9.016;2023-05-19T06:02:10;14.20;99.90
3406;DHT22;10008;48.682;9.016;2023-05-19T06:04:37;14.70;99.00
3406;DHT22;10008;48.682;9.016;2023-05-19T06:07:05;15.30;98.00
3406;DHT22;10008;48.682;9.016;2023-05-19T06:09:34;16.00;96.60
3406;DHT22;10008;48.682;9.016;2023-05-19T06:12:01;16.40;95.80
3406;DHT22;10008;48.682;9.016;2023-05-19T06:14:32;16.70;95.00
3406;DHT22;10008;48.682;9.016;2023-05-19T06:17:24;16.80;94.30
3406;DHT22;10008;48.682;9.016;2023-05-19T06:19:50;17.30;93.90
3406;DHT22;10008;48.682;9.016;2023-05-19T06:22:16;17.70;93.30
3406;DHT22;10008;48.682;9.016;2023-05-19T06:24:43;17.90;92.30
3406;DHT22;10008;48.682;9.016;2023-05-19T06:27:09;18.30;91.90
3406;DHT22;10008;48.682;9.016;2023-05-19T06:29:35;18.60;91.20
3406;DHT22;10008;48.682;9.016;2023-05-19T06:32:04;18.70;90.80
3406;DHT22;10008;48.682;9.016;2023-05-19T06:34:30;18.80;90.40
3406;DHT22;10008;48.682;9.016;2023-05-19T06:36:56;19.20;90.50
3406;DHT22;10008;48.682;9.016;2023-05-19T06:39:23;19.50;88.60
3406;DHT22;10008;48.682;9.016;2023-05-19T06:41:49;19.40;87.40
3406;DHT22;10008;48.682;9.016;2023-05-19T06:44:35;19.10;87.00
3406;DHT22;10008;48.682;9.016;2023-05-19T06:47:00;18.80;87.70
3406;DHT22;10008;48.682;9.016;2023-05-19T06:49:26;19.10;87.50
3406;DHT22;10008;48.682;9.016;2023-05-19T06:51:54;19.30;87.70
3406;DHT22;10008;48.682;9.016;2023-05-19T06:54:20;19.30;86.20
3406;DHT22;10008;48.682;9.016;2023-05-19T06:56:46;19.60;85.90
3406;DHT22;10008;48.682;9.016;2023-05-19T06:59:13;20.10;84.90
3406;DHT22;10008;48.682;9.016;2023-05-19T07:01:38;20.60;83.70
3406;DHT22;10008;48.682;9.016;2023-05-19T07:04:04;20.90;82.10
3406;DHT22;10008;48.682;9.016;2023-05-19T07:06:30;21.40;81.60
3406;DHT22;10008;48.682;9.016;2023-05-19T07:08:56;21.80;80.30
3406;DHT22;10008;48.682;9.016;2023-05-19T07:11:22;21.40;78.70
3406;DHT22;10008;48.682;9.016;2023-05-19T07:13:49;21.30;79.50
3406;DHT22;10008;48.682;9.016;2023-05-19T07:16:21;21.10;79.10
3406;DHT22;10008;48.682;9.016;2023-05-19T07:18:47;21.50;79.60
3406;DHT22;10008;48.682;9.016;2023-05-19T07:21:12;20.70;78.60
3406;DHT22;10008;48.682;9.016;2023-05-19T07:23:38;19.90;80.70
3406;DHT22;10008;48.682;9.016;2023-05-19T07:26:04;19.40;81.90
3406;DHT22;10008;48.682;9.016;2023-05-19T07:28:30;18.70;83.00
3406;DHT22;10008;48.682;9.016;2023-05-19T07:30:55;18.10;84.30
3406;DHT22;10008;48.682;9.016;2023-05-19T07:33:21;17.70;87.90
3406;DHT22;10008;48.682;9.016;2023-05-19T07:35:47;17.30;87.00
3406;DHT22;10008;48.682;9.016;2023-05-19T07:38:13;16.90;89.70
3406;DHT22;10008;48.682;9.016;2023-05-19T07:40:39;16.70;91.30
3406;DHT22;10008;48.682;9.016;2023-05-19T07:43:04;17.10;91.50
3406;DHT22;10008;48.682;9.016;2023-05-19T07:45:30;16.80;90.20
3406;DHT22;10008;48.682;9.016;2023-05-19T07:47:56;16.30;91.00
3406;DHT22;10008;48.682;9.016;2023-05-19T07:50:22;16.20;91.20
3406;DHT22;10008;48.682;9.016;2023-05-19T07:52:47;16.20;91.30
3406;DHT22;10008;48.682;9.016;2023-05-19T07:55:13;16.30;91.90
3406;DHT22;10008;48.682;9.016;2023-05-19T07:57:39;16.50;91.50
3406;DHT22;10008;48.682;9.016;2023-05-19T08:00:05;16.50;91.50
3406;DHT22;10008;48.682;9.016;2023-05-19T08:02:37;16.60;91.40
3406;DHT22;10008;48.682;9.016;2023-05-19T08:05:03;16.50;91.40
3406;DHT22;10008;48.682;9.016;2023-05-19T08:07:29;16.60;91.30
3406;DHT22;10008;48.682;9.016;2023-05-19T08:09:55;16.60;91.30
3406;DHT22;10008;48.682;9.016;2023-05-19T08:12:20;16.50;91.00
3406;DHT22;10008;48.682;9.016;2023-05-19T08:14:46;16.30;91.30
3406;DHT22;10008;48.682;9.016;2023-05-19T08:17:12;16.30;91.70
3406;DHT22;10008;48.682;9.016;2023-05-19T08:19:37;16.20;91.30
3406;DHT22;10008;48.682;9.016;2023-05-19T08:22:03;16.10;91.20
3406;DHT22;10008;48.682;9.016;2023-05-19T08:24:29;16.10;91.70
3406;DHT22;10008;48.682;9.016;2023-05-19T08:26:57;16.00;91.90
3406;DHT22;10008;48.682;9.016;2023-05-19T08:29:22;16.10;92.50
3406;DHT22;10008;48.682;9.016;2023-05-19T08:31:48;16.30;92.30
3406;DHT22;10008;48.682;9.016;2023-05-19T08:34:14;16.20;92.30
3406;DHT22;10008;48.682;9.016;2023-05-19T08:36:39;16.20;91.80
3406;DHT22;10008;48.682;9.016;2023-05-19T08:39:06;16.10;92.00
3406;DHT22;10008;48.682;9.016;2023-05-19T08:41:32;16.20;92.00
3406;DHT22;10008;48.682;9.016;2023-05-19T08:43:58;16.20;91.40
3406;DHT22;10008;48.682;9.016;2023-05-19T08:46:24;16.20;91.90
3406;DHT22;10008;48.682;9.016;2023-05-19T08:48:53;16.30;91.90
3406;DHT22;10008;48.682;9.016;2023-05-19T08:51:30;16.40;92.10
3406;DHT22;10008;48.682;9.016;2023-05-19T08:54:06;16.50;91.90
3406;DHT22;10008;48.682;9.016;2023-05-19T08:56:33;16.70;91.30
3406;DHT22;10008;48.682;9.016;2023-05-19T08:59:00;16.80;91.30
3406;DHT22;10008;48.682;9.016;2023-05-19T09:01:27;16.80;91.10
3406;DHT22;10008;48.682;9.016;2023-05-19T09:03:54;16.90;90.80
3406;DHT22;10008;48.682;9.016;2023-05-19T09:06:20;17.00;90.90
3406;DHT22;10008;48.682;9.016;2023-05-19T09:08:46;17.30;90.60
3406;DHT22;10008;48.682;9.016;2023-05-19T09:11:12;17.10;90.30
3406;DHT22;10008;48.682;9.016;2023-05-19T09:13:38;17.00;90.50
3406;DHT22;10008;48.682;9.016;2023-05-19T09:16:05;17.00;90.40
3406;DHT22;10008;48.682;9.016;2023-05-19T09:18:31;17.00;90.70
3406;DHT22;10008;48.682;9.016;2023-05-19T09:20:58;17.10;91.10
3406;DHT22;10008;48.682;9.016;2023-05-19T09:23:29;17.00;89.50
3406;DHT22;10008;48.682;9.016;2023-05-19T09:25:55;16.80;89.70
3406;DHT22;10008;48.682;9.016;2023-05-19T09:28:30;16.70;90.60
3406;DHT22;10008;48.682;9.016;2023-05-19T09:31:05;16.70;90.90
3406;DHT22;10008;48.682;9.016;2023-05-19T09:33:38;16.60;90.50
3406;DHT22;10008;48.682;9.016;2023-05-19T09:36:05;16.50;90.80
3406;DHT22;10008;48.682;9.016;2023-05-19T09:38:34;16.50;90.80
3406;DHT22;10008;48.682;9.016;2023-05-19T09:41:00;16.40;91.40
3406;DHT22;10008;48.682;9.016;2023-05-19T09:43:27;16.40;90.90
3406;DHT22;10008;48.682;9.016;2023-05-19T09:46:03;16.30;90.90
3406;DHT22;10008;48.682;9.016;2023-05-19T09:48:30;16.20;91.30
3406;DHT22;10008;48.682;9.016;2023-05-19T09:50:56;15.60;91.50
3406;DHT22;10008;48.682;9.016;2023-05-19T09:53:23;16.00;91.90
3406;DHT22;10008;48.682;9.016;2023-05-19T09:55:50;15.90;91.70
3406;DHT22;10008;48.682;9.016;2023-05-19T09:58:17;15.90;91.50
3406;DHT22;10008;48.682;9.016;2023-05-19T10:00:44;15.90;91.90
3406;DHT22;10008;48.682;9.016;2023-05-19T10:03:11;15.90;91.90
3406;DHT22;10008;48.682;9.016;2023-05-19T10:05:38;16.00;92.20
3406;DHT22;10008;48.682;9.016;2023-05-19T10:08:05;15.90;91.70
3406;DHT22;10008;48.682;9.016;2023-05-19T10:10:36;15.60;92.00
3406;DHT22;10008;48.682;9.016;2023-05-19T10:13:03;15.80;92.20
3406;DHT22;10008;48.682;9.016;2023-05-19T10:15:29;15.70;92.10
3406;DHT22;10008;48.682;9.016;2023-05-19T10:17:56;15.40;92.90
3406;DHT22;10008;48.682;9.016;2023-05-19T10:20:22;15.50;92.70
3406;DHT22;10008;48.682;9.016;2023-05-19T10:22:47;15.50;92.70
3406;DHT22;10008;48.682;9.016;2023-05-19T10:25:14;15.60;92.50
3406;DHT22;10008;48.682;9.016;2023-05-19T10:27:55;15.40;92.90
3406;DHT22;10008;48.682;9.016;2023-05-19T10:30:36;15.40;93.40
3406;DHT22;10008;48.682;9.016;2023-05-19T10:33:06;15.50;93.00
3406;DHT22;10008;48.682;9.016;2023-05-19T10:46:55;15.60;92.90
3406;DHT22;10008;48.682;9.016;2023-05-19T10:49:21;15.70;92.60
3406;DHT22;10008;48.682;9.016;2023-05-19T10:51:47;15.80;92.50
3406;DHT22;10008;48.682;9.016;2023-05-19T10:54:13;15.90;92.90
3406;DHT22;10008;48.682;9.016;2023-05-19T10:56:43;15.80;92.60
3406;DHT22;10008;48.682;9.016;2023-05-19T10:59:34;15.80;92.70
3406;DHT22;10008;48.682;9.016;2023-05-19T11:02:03;15.80;92.70
3406;DHT22;10008;48.682;9.016;2023-05-19T11:04:46;15.80;92.60
3406;DHT22;10008;48.682;9.016;2023-05-19T11:07:19;15.90;92.80
3406;DHT22;10008;48.682;9.016;2023-05-19T11:09:50;15.80;92.60
3406;DHT22;10008;48.682;9.016;2023-05-19T11:12:20;15.80;93.00
3406;DHT22;10008;48.682;9.016;2023-05-19T11:14:53;15.90;92.30
3406;DHT22;10008;48.682;9.016;2023-05-19T11:17:19;15.90;92.30
3406;DHT22;10008;48.682;9.016;2023-05-19T11:19:55;16.00;92.30
3406;DHT22;10008;48.682;9.016;2023-05-19T11:22:26;16.10;92.10
3406;DHT22;10008;48.682;9.016;2023-05-19T11:24:55;16.00;91.40
3406;DHT22;10008;48.682;9.016;2023-05-19T11:27:28;15.90;91.90
3406;DHT22;10008;48.682;9.016;2023-05-19T11:30:17;15.90;92.20
3406;DHT22;10008;48.682;9.016;2023-05-19T11:32:46;15.90;91.80
3406;DHT22;10008;48.682;9.016;2023-05-19T11:35:12;15.90;92.10
3406;DHT22;10008;48.682;9.016;2023-05-19T11:37:40;15.90;92.20
3406;DHT22;10008;48.682;9.016;2023-05-19T11:40:07;16.00;93.00
3406;DHT22;10008;48.682;9.016;2023-05-19T11:42:34;16.00;92.10
3406;DHT22;10008;48.682;9.016;2023-05-19T11:45:00;15.80;92.20
3406;DHT22;10008;48.682;9.016;2023-05-19T11:47:27;15.80;92.60
3406;DHT22;10008;48.682;9.016;2023-05-19T11:49:53;15.80;92.70
3406;DHT22;10008;48.682;9.016;2023-05-19T11:52:24;15.70;93.00
3406;DHT22;10008;48.682;9.016;2023-05-19T11:54:52;15.80;92.90
3406;DHT22;10008;48.682;9.016;2023-05-19T11:57:19;15.90;92.90
3406;DHT22;10008;48.682;9.016;2023-05-19T11:59:45;15.60;92.30
3406;DHT22;10008;48.682;9.016;2023-05-19T12:02:23;15.70;93.30
3406;DHT22;10008;48.682;9.016;2023-05-19T12:04:50;15.60;92.90
3406;DHT22;10008;48.682;9.016;2023-05-19T12:07:18;15.50;93.00
3406;DHT22;10008;48.682;9.016;2023-05-19T12:09:47;15.20;93.70
3406;DHT22;10008;48.682;9.016;2023-05-19T12:12:15;15.20;93.70
3406;DHT22;10008;48.682;9.016;2023-05-19T12:14:42;15.30;93.40
3406;DHT22;10008;48.682;9.016;2023-05-19T12:17:11;15.40;93.30
3406;DHT22;10008;48.682;9.016;2023-05-19T12:19:38;15.50;93.30
3406;DHT22;10008;48.682;9.016;2023-05-19T12:22:06;15.40;93.70
3406;DHT22;10008;48.682;9.016;2023-05-19T12:24:33;15.50;93.30
3406;DHT22;10008;48.682;9.016;2023-05-19T12:27:10;15.50;93.80
3406;DHT22;10008;48.682;9.016;2023-05-19T12:29:39;15.60;93.60
3406;DHT22;10008;48.682;9.016;2023-05-19T12:32:08;15.70;93.40
3406;DHT22;10008;48.682;9.016;2023-05-19T12:34:35;15.70;93.30
3406;DHT22;10008;48.682;9.016;2023-05-19T12:37:02;15.70;93.00
3406;DHT22;10008;48.682;9.016;2023-05-19T12:39:29;15.60;93.00
3406;DHT22;10008;48.682;9.016;2023-05-19T12:42:06;15.40;93.50
3406;DHT22;10008;48.682;9.016;2023-05-19T12:44:37;15.20;93.30
3406;DHT22;10008;48.682;9.016;2023-05-19T12:47:06;15.10;93.60
3406;DHT22;10008;48.682;9.016;2023-05-19T12:49:33;15.00;93.90
3406;DHT22;10008;48.682;9.016;2023-05-19T12:52:01;15.00;94.10
3406;DHT22;10008;48.682;9.016;2023-05-19T12:54:32;15.00;93.80
3406;DHT22;10008;48.682;9.016;2023-05-19T12:56:58;14.80;93.90
3406;DHT22;10008;48.682;9.016;2023-05-19T12:59:24;14.80;94.50
3406;DHT22;10008;48.682;9.016;2023-05-19T13:01:55;14.90;94.60
3406;DHT22;10008;48.682;9.016;2023-05-19T13:04:21;14.90;94.50
3406;DHT22;10008;48.682;9.016;2023-05-19T13:06:46;14.90;94.90
3406;DHT22;10008;48.682;9.016;2023-05-19T13:09:14;15.00;94.70
3406;DHT22;10008;48.682;9.016;2023-05-19T13:11:42;15.10;94.70
3406;DHT22;10008;48.682;9.016;2023-05-19T13:14:08;15.20;94.30
3406;DHT22;10008;48.682;9.016;2023-05-19T13:16:34;15.40;94.50
3406;DHT22;10008;48.682;9.016;2023-05-19T13:19:00;15.40;94.10
3406;DHT22;10008;48.682;9.016;2023-05-19T13:21:26;15.50;93.80
3406;DHT22;10008;48.682;9.016;2023-05-19T13:23:52;15.50;93.50
3406;DHT22;10008;48.682;9.016;2023-05-19T13:26:17;15.50;93.90
3406;DHT22;10008;48.682;9.016;2023-05-19T13:28:43;15.60;93.70
3406;DHT22;10008;48.682;9.016;2023-05-19T13:31:09;15.70;93.70
3406;DHT22;10008;48.682;9.016;2023-05-19T13:33:35;15.90;93.70
3406;DHT22;10008;48.682;9.016;2023-05-19T13:36:00;16.10;93.40
3406;DHT22;10008;48.682;9.016;2023-05-19T13:38:26;16.40;93.80
3406;DHT22;10008;48.682;9.016;2023-05-19T13:40:52;16.40;92.50
3406;DHT22;10008;48.682;9.016;2023-05-19T13:43:17;16.30;92.70
3406;DHT22;10008;48.682;9.016;2023-05-19T13:45:43;16.30;92.90
3406;DHT22;10008;48.682;9.016;2023-05-19T13:48:09;16.30;93.00
3406;DHT22;10008;48.682;9.016;2023-05-19T13:50:36;16.20;92.40
3406;DHT22;10008;48.682;9.016;2023-05-19T13:53:02;16.10;92.60
3406;DHT22;10008;48.682;9.016;2023-05-19T13:55:28;16.00;92.60
3406;DHT22;10008;48.682;9.016;2023-05-19T13:57:53;15.80;92.80
3406;DHT22;10008;48.682;9.016;2023-05-19T14:00:19;15.70;93.10
3406;DHT22;10008;48.682;9.016;2023-05-19T14:02:45;15.70;93.40
3406;DHT22;10008;48.682;9.016;2023-05-19T14:05:11;15.60;93.60
3406;DHT22;10008;48.682;9.016;2023-05-19T14:07:37;15.40;93.50
3406;DHT22;10008;48.682;9.016;2023-05-19T14:10:03;15.30;93.90
3406;DHT22;10008;48.682;9.016;2023-05-19T14:12:33;15.30;94.20
3406;DHT22;10008;48.682;9.016;2023-05-19T14:15:00;15.30;94.00
3406;DHT22;10008;48.682;9.016;2023-05-19T14:17:26;15.40;94.00
3406;DHT22;10008;48.682;9.016;2023-05-19T14:19:53;15.50;94.00
3406;DHT22;10008;48.682;9.016;2023-05-19T14:22:18;15.50;93.70
3406;DHT22;10008;48.682;9.016;2023-05-19T14:24:44;15.50;94.10
3406;DHT22;10008;48.682;9.016;2023-05-19T14:27:10;15.40;94.00
3406;DHT22;10008;48.682;9.016;2023-05-19T14:29:35;15.40;94.20
3406;DHT22;10008;48.682;9.016;2023-05-19T14:32:01;15.30;94.10
3406;DHT22;10008;48.682;9.016;2023-05-19T14:34:28;15.30;94.30
3406;DHT22;10008;48.682;9.016;2023-05-19T14:36:54;15.50;94.20
3406;DHT22;10008;48.682;9.016;2023-05-19T14:39:19;15.70;94.20
3406;DHT22;10008;48.682;9.016;2023-05-19T14:41:45;15.90;95.20
3406;DHT22;10008;48.682;9.016;2023-05-19T14:44:11;16.00;94.00
3406;DHT22;10008;48.682;9.016;2023-05-19T14:46:37;16.10;93.40
3406;DHT22;10008;48.682;9.016;2023-05-19T14:49:02;16.00;93.00
3406;DHT22;10008;48.682;9.016;2023-05-19T14:51:30;16.20;94.00
3406;DHT22;10008;48.682;9.016;2023-05-19T14:53:56;16.30;93.10
3406;DHT22;10008;48.682;9.016;2023-05-19T14:56:22;16.40;93.50
3406;DHT22;10008;48.682;9.016;2023-05-19T14:58:48;16.30;92.90
3406;DHT22;10008;48.682;9.016;2023-05-19T15:01:13;16.10;93.20
3406;DHT22;10008;48.682;9.016;2023-05-19T15:03:39;16.00;93.40
3406;DHT22;10008;48.682;9.016;2023-05-19T15:06:09;15.80;93.40
3406;DHT22;10008;48.682;9.016;2023-05-19T15:08:35;15.80;93.80
3406;DHT22;10008;48.682;9.016;2023-05-19T15:11:02;15.90;93.60
3406;DHT22;10008;48.682;9.016;2023-05-19T15:13:28;15.80;94.00
3406;DHT22;10008;48.682;9.016;2023-05-19T15:15:54;16.00;94.10
3406;DHT22;10008;48.682;9.016;2023-05-19T15:18:20;16.00;94.10
3406;DHT22;10008;48.682;9.016;2023-05-19T15:20:47;15.90;93.90
3406;DHT22;10008;48.682;9.016;2023-05-19T15:23:12;15.80;93.90
3406;DHT22;10008;48.682;9.016;2023-05-19T15:25:38;15.80;93.90
3406;DHT22;10008;48.682;9.016;2023-05-19T15:28:04;15.70;94.50
3406;DHT22;10008;48.682;9.016;2023-05-19T15:30:30;15.70;94.30
3406;DHT22;10008;48.682;9.016;2023-05-19T15:32:55;15.60;94.20
3406;DHT22;10008;48.682;9.016;2023-05-19T15:35:21;15.50;94.50
3406;DHT22;10008;48.682;9.016;2023-05-19T15:37:47;15.60;94.60
3406;DHT22;10008;48.682;9.016;2023-05-19T15:40:12;15.40;94.70
3406;DHT22;10008;48.682;9.016;2023-05-19T15:42:38;15.40;94.90
3406;DHT22;10008;48.682;9.016;2023-05-19T15:45:05;15.20;95.00
3406;DHT22;10008;48.682;9.016;2023-05-19T15:47:32;15.30;95.20
3406;DHT22;10008;48.682;9.016;2023-05-19T15:49:58;15.20;95.30
3406;DHT22;10008;48.682;9.016;2023-05-19T15:52:23;15.30;95.30
3406;DHT22;10008;48.682;9.016;2023-05-19T15:54:49;15.30;95.10
3406;DHT22;10008;48.682;9.016;2023-05-19T15:57:15;15.30;95.20
3406;DHT22;10008;48.682;9.016;2023-05-19T15:59:40;15.40;95.20
3406;DHT22;10008;48.682;9.016;2023-05-19T16:02:06;15.40;95.10
3406;DHT22;10008;48.682;9.016;2023-05-19T16:04:32;15.50;95.10
3406;DHT22;10008;48.682;9.016;2023-05-19T16:06:58;15.60;95.10
3406;DHT22;10008;48.682;9.016;2023-05-19T16:09:24;15.60;94.90
3406;DHT22;10008;48.682;9.016;2023-05-19T16:11:49;15.70;94.70